Time;durP1;ratioP1;P1;durP2;ratioP2;P2;SDS_P1;SDS_P2;PMS_P1;PMS_P2;Temp;Humidity;BMP_temperature;BMP_pressure;BME280_temperature;BME280_humidity;BME280_pressure;Samples;Min_cycle;Max_cycle;Signal;HPM_P1;HPM_P2
2022/01/05 00:00:47;;;;;;;2.47;2.28;;;;;;;6.80;82.50;98905.94;5016879;28;20491;-88
2022/01/05 00:03:13;;;;;;;2.13;1.80;;;;;;;6.77;82.57;98904.25;5016114;28;20033;-88
2022/01/05 00:05:39;;;;;;;2.92;2.63;;;;;;;6.76;82.39;98902.56;5016547;28;20028;-88
2022/01/05 00:08:05;;;;;;;2.85;2.38;;;;;;;6.75;82.48;98900.84;5016326;28;20440;-88
2022/01/05 00:10:30;;;;;;;2.58;2.13;;;;;;;6.76;82.60;98897.31;5016433;28;20025;-88
2022/01/05 00:12:56;;;;;;;2.40;2.20;;;;;;;6.79;82.21;98906.84;5015356;28;20391;-88
2022/01/05 00:15:22;;;;;;;2.42;2.22;;;;;;;6.76;82.42;98899.06;5016161;28;20036;-88
2022/01/05 00:17:47;;;;;;;2.85;2.25;;;;;;;6.75;82.25;98906.06;5016402;28;20348;-88
2022/01/05 00:20:13;;;;;;;3.13;2.40;;;;;;;6.78;82.52;98898.16;5016084;28;20025;-88
2022/01/05 00:22:39;;;;;;;2.55;2.17;;;;;;;6.74;82.24;98893.84;5016033;28;20024;-88
2022/01/05 00:25:05;;;;;;;2.55;2.30;;;;;;;6.78;82.41;98879.81;5015873;28;20025;-88
2022/01/05 00:27:31;;;;;;;2.83;2.55;;;;;;;6.75;82.51;98879.00;5016190;28;20083;-88
2022/01/05 00:29:58;;;;;;;3.17;2.40;;;;;;;6.80;82.66;98885.88;5016212;28;20029;-88
2022/01/05 00:32:24;;;;;;;2.92;2.25;;;;;;;6.79;82.49;98891.13;5016152;28;20030;-88
2022/01/05 00:34:52;;;;;;;2.97;2.72;;;;;;;6.81;82.14;98886.75;5016492;28;20487;-88
2022/01/05 00:37:18;;;;;;;2.80;2.40;;;;;;;6.73;82.45;98880.81;5016263;28;20037;-88
2022/01/05 00:39:44;;;;;;;3.78;2.78;;;;;;;6.75;82.41;98887.72;5007280;28;20022;-88
2022/01/05 00:42:10;;;;;;;2.47;2.28;;;;;;;6.75;82.61;98886.88;4996355;28;20022;-88
2022/01/05 00:44:36;;;;;;;2.90;2.38;;;;;;;6.73;82.60;98886.06;4995860;28;20538;-89
2022/01/05 00:47:02;;;;;;;4.05;2.88;;;;;;;6.65;82.16;98881.84;4995718;28;20033;-88
2022/01/05 00:49:28;;;;;;;3.10;2.70;;;;;;;6.68;82.58;98889.59;4995880;28;20064;-89
2022/01/05 00:51:53;;;;;;;3.22;2.60;;;;;;;6.74;82.55;98899.09;5014059;28;20021;-89
2022/01/05 00:54:19;;;;;;;5.35;2.60;;;;;;;6.67;82.46;98892.28;5015066;28;20112;-89
2022/01/05 00:56:45;;;;;;;3.13;2.30;;;;;;;6.73;82.35;98901.78;5015014;28;20059;-89
2022/01/05 00:59:16;;;;;;;3.25;2.67;;;;;;;6.64;82.59;98893.19;5015495;28;20044;-88
2022/01/05 01:01:42;;;;;;;;;;;;;;;6.75;82.48;98927.03;5031770;28;20372;-88
2022/01/05 01:04:08;;;;;;;3.67;2.55;;;;;;;6.71;82.63;98919.28;5015057;28;19959;-89
2022/01/05 01:06:33;;;;;;;3.13;2.83;;;;;;;6.66;82.82;98915.00;5015264;28;20064;-88
2022/01/05 01:08:59;;;;;;;5.13;2.65;;;;;;;6.57;82.29;98893.38;5014721;28;20471;-88
2022/01/05 01:11:25;;;;;;;5.18;2.85;;;;;;;6.59;82.13;98907.28;5015108;28;20025;-88
2022/01/05 01:13:51;;;;;;;5.30;2.72;;;;;;;6.65;82.62;98915.03;5014598;28;20029;-88
2022/01/05 01:16:19;;;;;;;3.47;2.80;;;;;;;6.68;82.55;98920.19;5014945;28;20057;-88
2022/01/05 01:18:44;;;;;;;2.80;2.08;;;;;;;6.73;82.46;98922.72;5015003;28;20036;-88
2022/01/05 01:21:10;;;;;;;3.28;2.50;;;;;;;6.64;82.42;98916.78;5015060;28;20021;-89
2022/01/05 01:23:37;;;;;;;3.28;2.53;;;;;;;6.57;82.37;98901.22;5013464;28;20030;-90
2022/01/05 01:26:03;;;;;;;2.95;2.28;;;;;;;6.70;82.35;98913.16;5014230;28;20040;-90
2022/01/05 01:28:28;;;;;;;2.58;2.38;;;;;;;6.76;82.13;98939.25;5014764;28;20037;-90
2022/01/05 01:30:56;;;;;;;2.90;2.05;;;;;;;6.70;82.17;98931.50;5015219;28;20026;-89
2022/01/05 01:33:22;;;;;;;3.30;2.20;;;;;;;6.68;82.52;98925.44;5006619;28;20430;-90
2022/01/05 01:35:50;;;;;;;3.67;2.30;;;;;;;6.55;82.19;98911.75;5014707;28;20037;-90
2022/01/05 01:38:17;;;;;;;3.00;2.35;;;;;;;6.74;82.15;98943.63;5016850;28;20025;-89
2022/01/05 01:40:42;;;;;;;3.70;2.60;;;;;;;6.56;82.25;98918.69;5016633;28;20029;-90
2022/01/05 01:43:08;;;;;;;4.75;2.80;;;;;;;6.59;82.14;98930.84;5022115;28;20067;-90
2022/01/05 01:45:34;;;;;;;2.58;2.20;;;;;;;6.65;82.35;98941.22;5033910;28;20120;-91
2022/01/05 01:48:00;;;;;;;3.17;2.28;;;;;;;6.61;82.44;98942.19;5018486;28;20078;-91
2022/01/05 01:50:26;;;;;;;2.67;1.95;;;;;;;6.58;82.00;98935.25;5031789;28;20038;-90
2022/01/05 01:52:54;;;;;;;3.47;2.17;;;;;;;6.56;82.17;98925.72;5014369;28;20021;-91
2022/01/05 01:55:21;;;;;;;2.40;2.08;;;;;;;6.58;82.07;98922.16;5016861;28;20049;-90
2022/01/05 01:57:47;;;;;;;2.22;1.80;;;;;;;6.51;82.13;98912.69;5015151;28;20032;-91
2022/01/05 02:00:16;;;;;;;3.35;2.05;;;;;;;6.60;82.10;98925.59;5017479;28;20399;-90
2022/01/05 02:02:44;;;;;;;3.45;1.98;;;;;;;6.57;82.33;98923.03;5011295;28;20046;-90
2022/01/05 02:05:10;;;;;;;2.65;1.88;;;;;;;6.65;82.24;98941.22;5012731;28;20022;-89
2022/01/05 02:07:36;;;;;;;5.03;1.90;;;;;;;6.66;82.47;98949.06;5010827;28;20464;-90
2022/01/05 02:10:07;;;;;;;2.40;1.88;;;;;;;6.57;82.13;98936.13;5011488;28;20041;-90
2022/01/05 02:12:33;;;;;;;4.50;2.20;;;;;;;6.57;82.54;98941.38;5014739;28;20025;-90
2022/01/05 02:15:02;;;;;;;2.67;2.00;;;;;;;6.48;82.25;98934.59;5028041;28;20113;-90
2022/01/05 02:20:14;;;;;;;3.55;2.38;;;;;;;6.49;82.37;98931.06;5035313;28;20044;-90
2022/01/05 02:22:42;;;;;;;3.67;2.15;;;;;;;6.52;82.27;98936.25;5012701;28;20033;-90
2022/01/05 02:25:08;;;;;;;2.50;1.70;;;;;;;6.61;82.30;98960.53;5016760;28;20080;-91
2022/01/05 02:27:34;;;;;;;3.72;2.30;;;;;;;6.65;82.35;98963.06;5032480;28;20026;-90
2022/01/05 02:30:03;;;;;;;2.70;2.05;;;;;;;6.59;82.28;98943.94;5016810;28;20041;-90
2022/01/05 02:32:29;;;;;;;2.35;1.58;;;;;;;6.46;82.21;98920.63;5014464;28;20037;-90
2022/01/05 02:34:58;;;;;;;3.65;1.70;;;;;;;6.50;82.27;98926.69;5014534;28;20029;-90
2022/01/05 02:37:23;;;;;;;3.75;1.85;;;;;;;6.45;82.43;98916.31;5017547;28;20076;-90
2022/01/05 02:39:49;;;;;;;2.13;1.50;;;;;;;6.50;82.42;98922.31;5017594;28;20037;-90
2022/01/05 02:42:28;;;;;;;1.95;1.75;;;;;;;6.58;82.29;98944.84;5019891;28;20017;-90
2022/01/05 02:44:58;;;;;;;4.80;1.77;;;;;;;6.57;82.16;98943.13;5019952;28;20113;-90
2022/01/05 02:47:24;;;;;;;1.92;1.52;;;;;;;6.51;82.40;98951.97;5019369;28;20026;-90
2022/01/05 02:49:50;;;;;;;3.75;2.08;;;;;;;6.55;82.33;98966.75;5019879;28;20056;-90
2022/01/05 02:52:23;;;;;;;3.15;1.90;;;;;;;6.42;82.24;98963.50;5026356;28;20029;-90
2022/01/05 02:54:52;;;;;;;2.85;1.85;;;;;;;6.41;81.85;98962.63;5019342;28;20466;-90
2022/01/05 02:57:23;;;;;;;2.13;1.58;;;;;;;6.54;82.18;98985.97;5019452;28;20060;-90
2022/01/05 02:59:49;;;;;;;;;;;;;;;6.60;81.89;98993.69;5015755;28;20025;-90
2022/01/05 03:02:17;;;;;;;2.20;1.55;;;;;;;6.45;82.37;98960.81;5014981;28;19913;-90
2022/01/05 03:04:43;;;;;;;3.30;2.25;;;;;;;6.48;82.00;98968.63;5017077;28;20035;-89
2022/01/05 03:07:15;;;;;;;2.10;1.70;;;;;;;6.46;82.11;98970.41;5014418;28;20120;-90
2022/01/05 03:09:41;;;;;;;2.40;1.30;;;;;;;6.43;82.41;98975.69;5016172;28;20087;-90
2022/01/05 03:12:07;;;;;;;3.35;2.00;;;;;;;6.40;82.38;98973.13;5011096;28;20025;-90
2022/01/05 03:14:33;;;;;;;4.07;2.45;;;;;;;6.56;82.43;98994.66;5029686;28;20502;-90
2022/01/05 03:17:07;;;;;;;5.43;1.88;;;;;;;6.52;81.89;98993.88;5014197;28;20017;-89
2022/01/05 03:19:35;;;;;;;3.00;1.85;;;;;;;6.42;82.14;98968.75;5016296;28;20030;-89
2022/01/05 03:22:03;;;;;;;2.05;1.70;;;;;;;6.41;82.27;98959.16;5010659;28;20052;-89
2022/01/05 03:24:34;;;;;;;3.97;1.85;;;;;;;6.49;81.96;98987.81;5010345;28;20033;-90
2022/01/05 03:27:05;;;;;;;2.50;1.70;;;;;;;6.52;82.10;98993.88;5011319;28;20037;-90
2022/01/05 03:29:31;;;;;;;2.45;1.50;;;;;;;6.49;82.09;98987.81;5013408;28;20423;-90
2022/01/05 03:31:57;;;;;;;3.30;1.60;;;;;;;6.49;82.17;98983.44;5013917;28;20029;-89
2022/01/05 03:34:27;;;;;;;1.90;1.75;;;;;;;6.44;82.45;98982.69;5010385;28;20063;-90
2022/01/05 03:36:54;;;;;;;3.15;2.13;;;;;;;6.37;82.18;98970.59;5015255;28;20032;-90
2022/01/05 03:39:23;;;;;;;2.13;1.50;;;;;;;6.48;82.34;98983.47;5012144;28;20029;-89
2022/01/05 03:41:52;;;;;;;4.70;2.10;;;;;;;6.34;82.21;98973.28;5013570;28;20041;-90
2022/01/05 03:44:18;;;;;;;3.30;1.67;;;;;;;6.39;82.41;98966.16;5014726;28;20033;-90
2022/01/05 03:46:49;;;;;;;2.30;1.80;;;;;;;6.32;82.36;98961.94;5011115;28;20029;-89
2022/01/05 03:49:15;;;;;;;;;;;;;;;6.51;82.20;98992.13;5015828;28;20030;-89
2022/01/05 03:51:43;;;;;;;1.92;1.42;;;;;;;6.44;82.19;98977.44;5013857;28;19924;-90
2022/01/05 03:54:08;;;;;;;2.30;1.48;;;;;;;6.48;82.03;98986.09;5015872;28;20030;-90
2022/01/05 03:56:34;;;;;;;2.70;1.80;;;;;;;6.39;82.49;98972.28;5011559;28;20037;-90
2022/01/05 03:59:00;;;;;;;1.40;1.30;;;;;;;6.37;82.54;98981.06;5015026;28;20036;-90
2022/01/05 04:01:26;;;;;;;2.50;1.60;;;;;;;6.36;82.20;98968.84;5008214;28;20076;-90
2022/01/05 04:03:55;;;;;;;3.20;1.30;;;;;;;6.41;82.44;98985.34;5016122;28;20135;-90
2022/01/05 04:06:23;;;;;;;2.08;1.60;;;;;;;6.31;82.32;98973.31;5011540;28;20025;-89
2022/01/05 04:08:52;;;;;;;3.40;1.55;;;;;;;6.38;82.14;98980.16;5011980;28;20573;-90
2022/01/05 04:11:21;;;;;;;2.63;1.52;;;;;;;6.41;82.65;98996.66;5013147;28;20037;-89
2022/01/05 04:14:00;;;;;;;2.53;1.77;;;;;;;6.43;82.10;98988.78;5011251;28;20032;-90
2022/01/05 04:16:31;;;;;;;1.90;1.80;;;;;;;6.29;82.48;98968.09;5016761;28;20048;-90
2022/01/05 04:19:00;;;;;;;2.03;1.40;;;;;;;6.43;82.58;99007.13;5012845;28;20821;-90
2022/01/05 04:21:28;;;;;;;3.20;1.70;;;;;;;6.25;82.28;98984.78;5010268;28;20025;-89
2022/01/05 04:23:54;;;;;;;2.50;1.52;;;;;;;6.41;82.37;99032.50;5013449;28;20025;-89
2022/01/05 04:26:20;;;;;;;2.85;1.50;;;;;;;6.40;82.42;99021.16;5011719;28;20025;-90
2022/01/05 04:28:45;;;;;;;3.83;1.63;;;;;;;6.37;82.45;99025.59;5014171;28;20495;-89
2022/01/05 04:31:11;;;;;;;2.80;1.55;;;;;;;6.33;82.33;99029.16;5013109;28;20348;-90
2022/01/05 04:33:37;;;;;;;2.65;1.60;;;;;;;6.43;82.37;99028.06;5010688;28;20100;-90
2022/01/05 04:36:05;;;;;;;2.40;1.40;;;;;;;6.31;82.55;99004.75;5011217;28;20049;-90
2022/01/05 04:38:31;;;;;;;3.05;1.20;;;;;;;6.21;82.33;99002.31;5015243;28;20415;-89
2022/01/05 04:40:56;;;;;;;1.30;1.20;;;;;;;6.38;82.48;99035.16;5013658;28;20040;-89
2022/01/05 04:43:22;;;;;;;1.48;1.35;;;;;;;6.38;82.35;99033.41;5011561;28;20108;-90
2022/01/05 04:45:49;;;;;;;2.45;1.40;;;;;;;6.40;82.27;99035.97;5013133;28;20036;-90
2022/01/05 04:48:14;;;;;;;2.97;1.40;;;;;;;6.35;81.97;99043.94;5013176;28;20029;-90
2022/01/05 04:50:40;;;;;;;3.72;1.55;;;;;;;6.23;82.22;99029.31;5014416;28;20439;-90
2022/01/05 04:53:06;;;;;;;1.55;1.40;;;;;;;6.34;82.44;99041.34;5013306;28;20052;-90
2022/01/05 04:55:31;;;;;;;3.40;1.25;;;;;;;6.24;82.20;99031.03;5030839;28;20033;-90
2022/01/05 04:57:57;;;;;;;2.10;1.70;;;;;;;6.33;82.02;99061.41;5016852;28;20040;-90
2022/01/05 05:00:22;;;;;;;4.47;1.50;;;;;;;6.33;82.21;99068.44;5013806;28;20033;-89
2022/01/05 05:02:48;;;;;;;3.88;1.60;;;;;;;6.32;82.16;99069.31;5015113;28;20053;-91
2022/01/05 05:05:14;;;;;;;2.72;1.38;;;;;;;6.29;82.45;99075.47;5011727;28;20464;-90
2022/01/05 05:07:40;;;;;;;2.65;1.77;;;;;;;6.23;82.32;99067.69;5016758;28;20025;-89
2022/01/05 05:10:06;;;;;;;1.58;1.30;;;;;;;6.29;81.89;99072.84;5018361;28;20033;-90
2022/01/05 05:12:32;;;;;;;1.85;1.30;;;;;;;6.19;82.26;99053.81;5012667;28;20037;-90
2022/01/05 05:14:58;;;;;;;3.28;1.55;;;;;;;6.27;82.31;99072.88;5015633;28;20029;-90
2022/01/05 05:17:23;;;;;;;2.72;1.73;;;;;;;6.26;82.27;99071.16;5015907;28;20390;-90
2022/01/05 05:19:49;;;;;;;3.97;1.50;;;;;;;6.26;82.17;99071.16;5014090;28;20415;-90
2022/01/05 05:22:14;;;;;;;1.77;1.38;;;;;;;6.23;82.40;99065.09;5011095;28;20285;-90
2022/01/05 05:24:40;;;;;;;2.00;1.67;;;;;;;6.33;82.24;99081.53;5012928;28;20029;-90
2022/01/05 05:27:06;;;;;;;3.85;1.55;;;;;;;6.28;82.12;99071.97;5015427;28;20029;-89
2022/01/05 05:29:31;;;;;;;1.35;1.10;;;;;;;6.23;81.89;99063.34;5013057;28;20510;-90
2022/01/05 05:31:57;;;;;;;3.83;1.58;;;;;;;6.14;82.03;99045.19;5014739;28;20235;-90
2022/01/05 05:34:24;;;;;;;1.73;1.20;;;;;;;6.13;82.11;99044.31;5011841;28;20029;-90
2022/01/05 05:36:50;;;;;;;3.47;1.27;;;;;;;6.16;82.02;99059.97;5013190;28;20064;-90
2022/01/05 05:39:15;;;;;;;1.80;1.42;;;;;;;6.18;82.19;99057.34;5004817;28;20057;-90
2022/01/05 05:41:41;;;;;;;1.83;1.15;;;;;;;6.12;82.20;99044.34;5010981;28;20083;-89
2022/01/05 05:44:06;;;;;;;1.20;1.10;;;;;;;6.20;82.21;99067.78;5011088;28;20112;-89
2022/01/05 05:46:32;;;;;;;2.40;1.23;;;;;;;6.25;82.12;99079.91;5012101;28;20061;-89
2022/01/05 05:48:58;;;;;;;1.85;1.38;;;;;;;6.18;82.25;99067.81;5010679;28;20033;-89
2022/01/05 05:51:23;;;;;;;2.30;1.40;;;;;;;6.19;82.17;99074.75;5010481;28;20456;-90
2022/01/05 05:53:49;;;;;;;1.98;1.02;;;;;;;6.26;82.07;99091.22;5004002;28;20090;-90
2022/01/05 05:56:14;;;;;;;2.17;1.20;;;;;;;6.18;82.34;99093.97;5010486;28;20131;-90
2022/01/05 05:58:40;;;;;;;1.60;1.10;;;;;;;6.09;82.36;99089.75;5010979;28;20041;-89
2022/01/05 06:01:05;;;;;;;2.15;1.25;;;;;;;6.22;82.00;99111.38;5008749;28;20021;-90
2022/01/05 06:03:31;;;;;;;2.85;1.95;;;;;;;6.22;82.01;99116.59;5006073;28;20087;-90
2022/01/05 06:05:58;;;;;;;1.50;1.35;;;;;;;6.09;81.83;99094.13;5010012;28;20967;-89
2022/01/05 06:08:26;;;;;;;3.38;1.05;;;;;;;6.11;82.09;99114.13;5011675;28;20391;-89
2022/01/05 06:10:52;;;;;;;1.65;1.20;;;;;;;6.10;81.83;99111.56;5014432;28;20030;-89
2022/01/05 06:13:18;;;;;;;1.65;1.05;;;;;;;6.08;82.43;99108.09;5016974;28;20080;-89
2022/01/05 06:15:43;;;;;;;1.67;1.20;;;;;;;6.09;82.13;99115.06;5011734;28;20026;-89
2022/01/05 06:18:09;;;;;;;1.48;1.17;;;;;;;6.10;82.31;99106.34;5018384;28;20040;-89
2022/01/05 06:20:54;;;;;;;2.40;1.40;;;;;;;6.24;81.85;99130.50;5032335;28;20031;-89
2022/01/05 06:23:19;;;;;;;2.50;1.13;;;;;;;6.23;82.02;99123.56;5008492;28;20112;-89
2022/01/05 06:25:45;;;;;;;1.58;1.40;;;;;;;6.13;82.29;99116.72;5004984;28;20453;-89
2022/01/05 06:28:11;;;;;;;4.68;1.10;;;;;;;6.16;82.04;99121.94;5014122;28;20033;-89
2022/01/05 06:30:40;;;;;;;4.28;1.27;;;;;;;6.04;81.87;99107.28;5016894;28;20029;-89
2022/01/05 06:33:07;;;;;;;1.75;1.10;;;;;;;6.02;82.15;99099.44;5010422;28;20025;-89
2022/01/05 06:35:33;;;;;;;1.48;1.13;;;;;;;6.09;82.01;99121.16;5009629;28;20395;-88
2022/01/05 06:37:59;;;;;;;3.30;1.63;;;;;;;5.98;81.97;99109.97;5023535;28;20029;-89
2022/01/05 06:40:25;;;;;;;2.53;1.77;;;;;;;6.05;82.41;99124.72;5017241;28;20060;-89
2022/01/05 06:42:51;;;;;;;2.13;1.17;;;;;;;6.01;81.97;99110.78;5013201;28;20124;-89
2022/01/05 06:45:19;;;;;;;1.88;1.13;;;;;;;6.06;82.12;99104.66;5016541;28;20033;-89
2022/01/05 06:47:44;;;;;;;2.92;1.30;;;;;;;6.06;81.76;99105.50;5015577;28;20033;-89
2022/01/05 06:50:10;;;;;;;2.47;1.40;;;;;;;5.99;82.33;99104.72;5017440;28;20031;-89
2022/01/05 06:52:37;;;;;;;1.85;0.95;;;;;;;6.05;81.99;99102.91;5012470;28;20091;-89
2022/01/05 06:55:03;;;;;;;1.48;1.30;;;;;;;6.15;82.17;99126.31;5015929;28;20025;-89
2022/01/05 06:57:41;;;;;;;2.50;1.50;;;;;;;5.98;81.97;99108.22;5016369;28;20029;-89
2022/01/05 07:00:09;;;;;;;3.17;1.20;;;;;;;5.97;82.28;99109.09;5013168;28;20419;-89
2022/01/05 07:02:38;;;;;;;2.90;1.30;;;;;;;6.05;82.06;99126.47;5012514;28;20459;-89
2022/01/05 07:05:04;;;;;;;2.17;1.25;;;;;;;6.14;81.81;99144.66;5023099;28;20021;-89
2022/01/05 07:07:30;;;;;;;3.95;1.92;;;;;;;5.98;82.31;99129.16;5006181;28;20087;-89
2022/01/05 07:09:56;;;;;;;1.70;1.30;;;;;;;5.97;82.05;99139.66;5014749;28;20037;-89
2022/01/05 07:12:22;;;;;;;1.33;1.23;;;;;;;5.94;82.28;99135.34;5013810;28;20053;-89
2022/01/05 07:14:50;;;;;;;3.38;1.50;;;;;;;6.06;82.26;99157.00;5011932;28;20499;-89
2022/01/05 07:17:16;;;;;;;4.35;1.60;;;;;;;5.94;82.01;99137.94;5008762;28;20033;-89
2022/01/05 07:19:42;;;;;;;1.85;1.75;;;;;;;6.00;81.73;99148.31;5012396;28;20468;-89
2022/01/05 07:22:11;;;;;;;1.70;1.60;;;;;;;6.00;81.83;99158.78;5011005;28;20024;-89
2022/01/05 07:24:39;;;;;;;3.17;1.95;;;;;;;5.94;81.73;99144.94;5014215;28;20047;-89
2022/01/05 07:27:11;;;;;;;1.67;1.58;;;;;;;6.06;81.88;99173.56;5011415;28;20022;-89
2022/01/05 07:29:36;;;;;;;3.55;1.75;;;;;;;5.98;82.12;99171.03;5010499;28;20092;-89
2022/01/05 07:32:05;;;;;;;1.77;1.67;;;;;;;5.98;82.05;99181.50;5011450;28;20648;-89
2022/01/05 07:34:31;;;;;;;1.92;1.60;;;;;;;5.87;82.13;99165.94;5013873;28;20517;-89
2022/01/05 07:36:57;;;;;;;2.22;1.63;;;;;;;5.95;81.85;99180.66;5009231;28;20108;-89
2022/01/05 07:39:23;;;;;;;2.35;1.70;;;;;;;5.94;82.25;99184.19;5009743;28;20033;-89
2022/01/05 07:41:48;;;;;;;2.17;1.98;;;;;;;6.02;82.22;99203.25;5012267;28;20030;-89
2022/01/05 07:44:14;;;;;;;2.13;1.88;;;;;;;5.89;81.99;99176.38;5011714;28;20107;-89
2022/01/05 07:46:40;;;;;;;2.22;1.63;;;;;;;5.90;81.94;99194.69;5009103;28;20212;-89
2022/01/05 07:49:06;;;;;;;2.05;1.85;;;;;;;5.89;81.81;99198.19;5011697;28;20025;-89
2022/01/05 07:51:34;;;;;;;2.33;1.98;;;;;;;5.87;82.19;99188.66;5010474;28;20040;-89
2022/01/05 07:54:03;;;;;;;2.95;1.83;;;;;;;5.93;82.06;99212.09;5010317;28;20034;-89
2022/01/05 07:56:29;;;;;;;3.85;2.53;;;;;;;5.88;82.10;99206.06;5012561;28;20179;-89
2022/01/05 07:58:54;;;;;;;2.47;1.77;;;;;;;5.93;82.17;99213.88;5008607;28;20116;-89
2022/01/05 08:01:20;;;;;;;2.70;1.90;;;;;;;5.97;81.79;99221.63;5010785;28;20032;-89
2022/01/05 08:03:46;;;;;;;4.00;2.20;;;;;;;5.92;81.58;99218.22;5012294;28;20037;-89
2022/01/05 08:06:12;;;;;;;4.05;2.38;;;;;;;5.81;82.13;99189.59;5012658;28;20025;-89
2022/01/05 08:08:38;;;;;;;2.55;2.00;;;;;;;5.78;81.78;99190.47;5015951;28;20087;-87
2022/01/05 08:11:04;;;;;;;2.10;1.90;;;;;;;5.83;81.77;99202.66;5016359;28;20164;-87
2022/01/05 08:13:29;;;;;;;3.55;2.35;;;;;;;5.94;81.86;99226.94;5016171;28;20025;-87
2022/01/05 08:15:55;;;;;;;2.90;2.10;;;;;;;5.98;81.86;99257.41;5015896;28;20557;-87
2022/01/05 08:18:21;;;;;;;2.58;1.88;;;;;;;5.97;81.95;99247.81;5015783;28;20025;-88
2022/01/05 08:20:47;;;;;;;2.22;1.88;;;;;;;5.98;81.49;99262.63;5016066;28;20387;-87
2022/01/05 08:23:17;;;;;;;3.58;2.28;;;;;;;5.87;81.72;99259.28;5015823;28;20028;-87
2022/01/05 08:25:43;;;;;;;2.08;1.88;;;;;;;5.84;82.02;99249.72;5015823;28;20057;-87
2022/01/05 08:28:11;;;;;;;3.17;1.95;;;;;;;5.90;81.95;99260.09;5015927;28;20126;-87
2022/01/05 08:30:37;;;;;;;3.65;3.30;;;;;;;5.93;81.71;99263.59;5016137;28;20025;-87
2022/01/05 08:33:03;;;;;;;2.42;2.10;;;;;;;5.84;81.66;99252.31;5015622;28;20033;-87
2022/01/05 08:35:29;;;;;;;2.28;2.00;;;;;;;5.91;81.91;99260.97;5014543;28;20043;-87
2022/01/05 08:37:55;;;;;;;2.60;2.40;;;;;;;5.76;81.95;99235.84;5015814;28;20032;-87
2022/01/05 08:40:23;;;;;;;2.25;2.03;;;;;;;5.77;81.69;99235.84;5015228;28;20391;-87
2022/01/05 08:42:50;;;;;;;4.22;2.20;;;;;;;5.85;82.04;99258.44;5015542;28;20312;-87
2022/01/05 08:45:17;;;;;;;2.95;2.33;;;;;;;5.96;81.66;99284.47;5015784;28;20017;-87
2022/01/05 08:47:47;;;;;;;2.95;2.47;;;;;;;5.84;81.31;99275.88;5015435;28;20083;-87
2022/01/05 08:50:14;;;;;;;2.95;2.60;;;;;;;5.88;81.84;99271.50;5016213;28;20387;-87
2022/01/05 08:52:40;;;;;;;4.13;2.45;;;;;;;5.82;81.68;99261.09;5015103;28;20041;-87
2022/01/05 08:55:06;;;;;;;3.53;1.98;;;;;;;5.82;81.49;99275.03;5015373;28;20549;-87
2022/01/05 08:57:32;;;;;;;4.00;2.40;;;;;;;5.82;81.39;99280.28;5015369;28;20021;-87
2022/01/05 09:00:00;;;;;;;3.88;2.28;;;;;;;5.82;81.49;99279.41;5015676;28;20454;-87
2022/01/05 09:02:27;;;;;;;2.92;2.33;;;;;;;5.82;81.53;99295.09;5015362;28;20029;-87
2022/01/05 09:04:53;;;;;;;2.90;2.42;;;;;;;5.75;81.95;99289.06;5015138;28;20063;-87
2022/01/05 09:07:19;;;;;;;5.32;2.72;;;;;;;5.81;81.81;99299.50;5014989;28;20108;-87
2022/01/05 09:09:44;;;;;;;4.70;2.60;;;;;;;5.78;81.75;99297.75;5015381;28;20480;-87
2022/01/05 09:12:11;;;;;;;4.10;2.83;;;;;;;5.76;81.99;99304.75;5015022;28;20044;-87
2022/01/05 09:14:38;;;;;;;4.63;3.08;;;;;;;5.71;81.56;99293.50;5015147;28;20064;-87
2022/01/05 09:17:04;;;;;;;6.40;3.50;;;;;;;5.80;81.25;99307.34;5031586;28;20018;-87
2022/01/05 09:19:29;;;;;;;3.92;2.97;;;;;;;5.89;81.57;99323.81;5014894;28;20025;-87
2022/01/05 09:21:55;;;;;;;3.88;2.88;;;;;;;5.72;81.37;99300.44;5014817;28;20021;-87
2022/01/05 09:24:21;;;;;;;3.35;3.00;;;;;;;5.82;81.37;99322.16;5014880;28;20108;-87
2022/01/05 09:26:47;;;;;;;6.15;3.95;;;;;;;5.67;81.20;99296.16;5014440;28;20048;-88
2022/01/05 09:29:14;;;;;;;5.30;3.65;;;;;;;5.72;81.26;99300.44;5015186;28;20029;-87
2022/01/05 09:31:40;;;;;;;7.07;3.42;;;;;;;5.84;81.17;99314.28;5014067;28;20120;-88
2022/01/05 09:34:05;;;;;;;4.85;3.75;;;;;;;5.76;81.32;99307.38;5014597;28;20131;-87
2022/01/05 09:36:40;;;;;;;5.50;4.03;;;;;;;5.82;81.13;99308.19;5015066;28;20021;-87
2022/01/05 09:41:56;;;;;;;5.97;4.30;;;;;;;5.64;81.41;99287.44;5031325;28;20490;-88
2022/01/05 09:44:38;;;;;;;6.47;3.60;;;;;;;5.67;81.38;99286.53;5015341;28;20030;-87
2022/01/05 09:47:35;;;;;;;;;;;;;;;5.84;80.67;99320.34;5018840;28;20036;-87
2022/01/05 09:50:04;;;;;;;5.82;3.88;;;;;;;5.79;79.49;99301.25;4981656;28;19917;-87
2022/01/05 09:52:34;;;;;;;6.57;4.00;;;;;;;5.75;79.81;99310.88;5018702;28;20025;-87
2022/01/05 09:54:59;;;;;;;5.72;4.22;;;;;;;5.84;79.79;99317.75;5018135;28;20029;-87
2022/01/05 09:57:26;;;;;;;10.13;4.20;;;;;;;5.85;80.08;99311.66;5015203;28;20029;-88
2022/01/05 09:59:58;;;;;;;6.18;4.25;;;;;;;5.75;79.87;99304.78;5015853;28;20507;-90
2022/01/05 10:02:24;;;;;;;8.60;5.15;;;;;;;5.83;80.31;99318.63;5018775;28;20076;-89
2022/01/05 10:04:50;;;;;;;5.35;4.13;;;;;;;5.84;79.72;99329.97;5018889;28;20026;-88
2022/01/05 10:07:18;;;;;;;6.65;4.28;;;;;;;5.83;79.73;99328.25;5018886;28;20494;-87
2022/01/05 10:09:45;;;;;;;8.90;4.45;;;;;;;5.74;79.45;99319.59;5018852;28;20025;-87
2022/01/05 10:12:13;;;;;;;4.55;3.90;;;;;;;5.85;79.64;99327.34;5015967;28;20021;-90
2022/01/05 10:14:44;;;;;;;9.27;4.22;;;;;;;5.89;79.32;99336.00;5014683;28;20040;-89
2022/01/05 10:17:15;;;;;;;5.55;4.03;;;;;;;5.89;79.45;99341.25;5016402;28;20036;-89
2022/01/05 10:19:41;;;;;;;5.55;4.28;;;;;;;5.85;79.13;99332.59;5010318;28;20033;-89
2022/01/05 10:22:34;;;;;;;5.28;3.95;;;;;;;5.89;79.34;99333.41;5017210;28;20036;-89
2022/01/05 10:25:03;;;;;;;4.97;3.90;;;;;;;5.87;79.44;99333.41;5004672;28;20125;-90
2022/01/05 10:27:29;;;;;;;4.88;4.03;;;;;;;5.86;79.26;99320.34;5014733;28;20513;-89
2022/01/05 10:30:13;;;;;;;5.88;4.35;;;;;;;5.89;79.54;99343.88;5015877;28;20472;-89
2022/01/05 10:32:39;;;;;;;4.63;3.90;;;;;;;5.85;79.10;99327.34;5010947;28;20033;-89
2022/01/05 10:35:11;;;;;;;10.60;3.70;;;;;;;5.87;78.82;99333.41;5006008;28;20456;-89
2022/01/05 10:37:43;;;;;;;6.05;3.58;;;;;;;5.81;79.15;99319.53;5008175;28;20091;-88
2022/01/05 10:40:25;;;;;;;5.72;4.18;;;;;;;5.87;78.64;99317.72;5032451;28;20438;-89
2022/01/05 10:42:53;;;;;;;6.55;3.65;;;;;;;5.83;78.82;99307.31;5009512;28;20025;-89
2022/01/05 10:45:22;;;;;;;6.50;4.18;;;;;;;5.84;78.83;99317.75;5026145;28;20414;-89
2022/01/05 10:48:05;;;;;;;7.07;4.22;;;;;;;5.83;78.90;99309.94;5006889;28;20756;-90
2022/01/05 10:50:31;;;;;;;5.47;3.80;;;;;;;5.85;78.74;99300.31;5009356;28;20034;-89
2022/01/05 10:52:57;;;;;;;6.95;3.70;;;;;;;5.86;78.72;99315.09;5005754;28;20061;-89
2022/01/05 10:55:25;;;;;;;4.95;4.32;;;;;;;5.81;78.54;99294.25;5017211;28;20082;-89
2022/01/05 10:57:57;;;;;;;9.60;4.10;;;;;;;5.86;79.08;99307.25;5010430;28;20029;-89
2022/01/05 11:00:32;;;;;;;4.55;3.33;;;;;;;5.87;79.19;99303.78;5023966;28;20030;-88
2022/01/05 11:02:58;;;;;;;3.65;3.35;;;;;;;5.84;78.35;99303.81;5026322;28;20204;-88
2022/01/05 11:05:24;;;;;;;6.07;4.05;;;;;;;5.84;78.77;99299.41;5008172;28;20021;-89
2022/01/05 11:07:49;;;;;;;4.30;3.63;;;;;;;5.85;78.53;99295.94;5025804;28;20036;-89
2022/01/05 11:10:17;;;;;;;6.72;3.47;;;;;;;5.76;78.59;99281.22;5026134;28;20082;-87
2022/01/05 11:12:50;;;;;;;6.00;4.10;;;;;;;5.83;78.80;99296.84;5016786;28;20539;-88
2022/01/05 11:15:35;;;;;;;6.28;3.45;;;;;;;5.87;79.00;99298.53;5010088;28;20386;-88
2022/01/05 11:18:18;;;;;;;3.90;3.35;;;;;;;5.87;78.38;99303.78;5011407;28;20164;-89
2022/01/05 11:20:47;;;;;;;5.18;3.33;;;;;;;5.87;77.98;99309.00;5013082;28;20068;-88
2022/01/05 11:23:31;;;;;;;6.68;3.17;;;;;;;5.84;78.17;99304.66;5026362;28;20021;-88
2022/01/05 11:25:59;;;;;;;4.70;3.40;;;;;;;5.83;78.57;99305.56;5015070;28;20373;-88
2022/01/05 11:28:25;;;;;;;3.72;3.03;;;;;;;5.85;78.62;99300.31;5013202;28;20503;-88
2022/01/05 11:30:53;;;;;;;4.70;3.38;;;;;;;5.85;78.75;99303.78;5028897;28;20049;-89
2022/01/05 11:33:19;;;;;;;3.85;3.17;;;;;;;5.85;78.61;99310.75;5010256;28;20500;-88
2022/01/05 11:35:45;;;;;;;4.20;3.42;;;;;;;5.79;78.56;99301.25;5010290;28;20024;-87
2022/01/05 11:38:11;;;;;;;5.72;3.08;;;;;;;5.79;78.03;99290.78;5016793;28;20467;-87
2022/01/05 11:40:40;;;;;;;5.72;3.58;;;;;;;5.71;77.99;99296.13;5033520;28;20025;-87
2022/01/05 11:43:09;;;;;;;6.25;3.35;;;;;;;5.76;78.38;99310.00;5013301;28;20050;-87
2022/01/05 11:45:47;;;;;;;4.90;3.42;;;;;;;5.78;78.09;99300.38;5016795;28;20399;-87
2022/01/05 11:48:28;;;;;;;6.93;3.38;;;;;;;5.70;77.87;99290.91;5017518;28;20487;-87